createdAt,value
2019-02-27T00:01:40.663Z,9.40
2019-02-27T00:04:45.639Z,4.17
2019-02-27T00:07:51.875Z,2.60
2019-02-27T00:10:57.142Z,2.50
2019-02-27T00:14:02.141Z,2.60
2019-02-27T00:17:08.288Z,2.67
2019-02-27T00:20:13.558Z,2.17
2019-02-27T00:23:18.813Z,3.73
2019-02-27T00:26:23.683Z,4.13
2019-02-27T00:29:29.052Z,4.37
2019-02-27T00:32:35.850Z,5.77
2019-02-27T00:35:40.828Z,5.60
2019-02-27T00:38:45.964Z,3.03
2019-02-27T00:41:50.960Z,3.30
2019-02-27T00:44:55.965Z,3.97
2019-02-27T00:48:00.881Z,4.17
2019-02-27T00:51:05.986Z,3.00
2019-02-27T00:54:10.992Z,3.20
2019-02-27T00:57:20.602Z,3.10
2019-02-27T01:00:22.674Z,3.00
2019-02-27T01:03:27.670Z,2.80
2019-02-27T01:06:32.729Z,2.40
2019-02-27T01:09:39.445Z,2.43
2019-02-27T01:12:44.660Z,2.03
2019-02-27T01:15:49.916Z,2.13
2019-02-27T01:18:54.870Z,2.33
2019-02-27T01:21:59.957Z,2.80
2019-02-27T01:25:05.436Z,2.60
2019-02-27T01:28:11.071Z,2.40
2019-02-27T01:31:16.776Z,2.40
2019-02-27T01:34:22.301Z,3.45
2019-02-27T01:37:31.346Z,2.57
2019-02-27T01:40:34.396Z,2.60
2019-02-27T01:43:40.075Z,2.50
2019-02-27T01:46:45.666Z,2.63
2019-02-27T01:49:50.769Z,2.30
2019-02-27T01:52:55.788Z,2.37
2019-02-27T01:56:00.787Z,2.33
2019-02-27T01:59:05.780Z,2.60
2019-02-27T02:02:10.952Z,2.00
2019-02-27T02:05:15.765Z,3.10
2019-02-27T02:08:20.821Z,2.10
2019-02-27T02:11:25.916Z,2.30
2019-02-27T02:14:57.847Z,2.73
2019-02-27T02:18:45.734Z,2.37
2019-02-27T02:21:57.279Z,2.00
2019-02-27T02:25:40.449Z,2.90
2019-02-27T02:29:44.317Z,2.60
2019-02-27T02:33:29.134Z,2.53
2019-02-27T02:36:41.026Z,2.40
2019-02-27T02:40:31.174Z,2.67
2019-02-27T02:44:13.090Z,2.40
2019-02-27T02:47:37.026Z,3.00
2019-02-27T02:51:40.952Z,2.03
2019-02-27T02:55:12.504Z,3.60
2019-02-27T02:59:11.520Z,3.07
2019-02-27T03:02:29.870Z,3.07
2019-02-27T03:06:34.654Z,3.33
2019-02-27T03:10:07.103Z,3.30
2019-02-27T03:13:31.006Z,3.20
2019-02-27T03:16:59.721Z,2.63
2019-02-27T03:20:40.691Z,3.10
2019-02-27T03:24:28.370Z,2.90
2019-02-27T03:28:15.753Z,3.03
2019-02-27T03:31:59.894Z,2.73
2019-02-27T03:35:39.831Z,2.47
2019-02-27T03:39:26.974Z,3.03
2019-02-27T03:43:10.082Z,4.43
2019-02-27T03:46:34.350Z,2.73
2019-02-27T03:50:14.597Z,2.77
2019-02-27T03:53:46.559Z,2.83
2019-02-27T03:57:27.931Z,2.33
2019-02-27T04:00:57.163Z,2.40
2019-02-27T04:04:17.059Z,2.67
2019-02-27T04:08:15.075Z,2.47
2019-02-27T04:11:20.269Z,2.40
2019-02-27T04:14:29.048Z,2.90
2019-02-27T04:17:33.665Z,2.87
2019-02-27T04:20:38.934Z,2.80
2019-02-27T04:23:47.840Z,2.63
2019-02-27T04:26:50.563Z,2.40
2019-02-27T04:29:55.682Z,2.70
2019-02-27T04:33:00.642Z,2.80
2019-02-27T04:36:05.727Z,2.37
2019-02-27T04:39:10.818Z,3.40
2019-02-27T04:42:15.771Z,3.33
2019-02-27T04:45:20.878Z,3.07
2019-02-27T04:48:27.031Z,3.10
2019-02-27T04:51:32.576Z,2.50
2019-02-27T04:54:41.260Z,2.30
2019-02-27T04:57:44.382Z,3.27
2019-02-27T05:00:49.291Z,2.90
2019-02-27T05:03:54.408Z,2.70
2019-02-27T05:06:59.397Z,2.90
2019-02-27T05:10:06.921Z,3.40
2019-02-27T05:13:11.469Z,3.70
2019-02-27T05:16:16.398Z,3.30
2019-02-27T05:19:21.592Z,3.03
2019-02-27T05:22:26.753Z,3.80
2019-02-27T05:25:32.215Z,3.97
2019-02-27T05:28:37.273Z,3.87
2019-02-27T05:31:42.301Z,3.33
2019-02-27T05:34:49.771Z,3.47
2019-02-27T05:37:54.005Z,2.90
2019-02-27T05:41:00.026Z,3.37
2019-02-27T05:44:05.630Z,3.70
2019-02-27T05:47:11.084Z,4.20
2019-02-27T05:50:20.036Z,3.93
2019-02-27T05:53:24.989Z,4.97
2019-02-27T05:56:29.930Z,4.10
2019-02-27T05:59:34.949Z,4.60
2019-02-27T06:02:41.953Z,5.40
2019-02-27T06:05:49.557Z,5.33
2019-02-27T06:08:53.391Z,5.90
2019-02-27T06:11:58.389Z,6.10
2019-02-27T06:15:03.542Z,5.57
2019-02-27T06:18:08.578Z,4.30
2019-02-27T06:21:16.407Z,3.63
2019-02-27T06:24:20.567Z,3.73
2019-02-27T06:27:25.705Z,3.33
2019-02-27T06:30:31.369Z,3.90
2019-02-27T06:33:36.487Z,4.37
2019-02-27T06:36:42.763Z,3.80
2019-02-27T06:39:47.995Z,3.77
2019-02-27T06:42:53.855Z,4.00
2019-02-27T06:45:59.448Z,3.77
2019-02-27T06:49:04.553Z,4.10
2019-02-27T06:52:09.884Z,3.63
2019-02-27T06:55:15.055Z,4.00
2019-02-27T06:58:20.114Z,4.50
2019-02-27T07:01:26.242Z,3.95
2019-02-27T07:04:31.557Z,4.13
2019-02-27T07:07:36.864Z,4.33
2019-02-27T07:10:41.741Z,4.37
2019-02-27T07:13:46.653Z,4.27
2019-02-27T07:16:51.706Z,5.17
2019-02-27T07:19:56.623Z,5.50
2019-02-27T07:23:01.803Z,4.27
2019-02-27T07:26:06.589Z,4.60
2019-02-27T07:29:21.110Z,4.73
2019-02-27T07:32:18.301Z,4.80
2019-02-27T07:35:26.395Z,4.43
2019-02-27T07:38:31.757Z,5.43
2019-02-27T07:41:36.677Z,5.00
2019-02-27T07:44:42.268Z,6.20
2019-02-27T07:47:47.316Z,6.97
2019-02-27T07:50:52.298Z,6.70
2019-02-27T07:53:57.329Z,5.60
2019-02-27T07:57:02.341Z,5.97
2019-02-27T08:00:18.376Z,6.50
2019-02-27T08:03:23.529Z,5.93
2019-02-27T08:06:28.522Z,7.07
2019-02-27T08:09:33.605Z,5.80
2019-02-27T08:12:38.636Z,5.87
2019-02-27T08:15:44.252Z,5.10
2019-02-27T08:18:49.529Z,5.43
2019-02-27T08:21:54.521Z,5.33
2019-02-27T08:25:18.380Z,6.80
2019-02-27T08:28:26.478Z,6.10
2019-02-27T08:31:32.105Z,6.47
2019-02-27T08:34:37.400Z,6.10
2019-02-27T08:37:42.267Z,6.83
2019-02-27T08:40:47.260Z,4.80
2019-02-27T08:43:52.374Z,8.20
2019-02-27T08:46:57.447Z,7.03
2019-02-27T08:50:04.009Z,7.03
2019-02-27T08:53:09.165Z,7.13
2019-02-27T08:56:14.251Z,8.40
2019-02-27T08:59:19.276Z,6.77
2019-02-27T09:02:29.165Z,7.50
2019-02-27T09:05:31.189Z,8.20
2019-02-27T09:08:36.304Z,6.97
2019-02-27T09:11:41.347Z,6.97
2019-02-27T09:14:46.309Z,7.00
2019-02-27T09:17:51.404Z,8.73
2019-02-27T09:20:56.389Z,7.77
2019-02-27T09:24:01.528Z,7.27
2019-02-27T09:27:06.495Z,8.13
2019-02-27T09:30:13.156Z,7.63
2019-02-27T09:33:19.984Z,7.83
2019-02-27T09:36:24.669Z,8.00
2019-02-27T09:39:31.214Z,8.87
2019-02-27T09:42:36.573Z,7.97
2019-02-27T09:45:46.522Z,8.70
2019-02-27T09:48:50.605Z,8.13
2019-02-27T09:51:56.369Z,7.62
2019-02-27T09:55:01.916Z,8.68
2019-02-27T09:58:11.121Z,8.75
2019-02-27T10:01:16.914Z,8.28
2019-02-27T10:04:22.168Z,9.30
2019-02-27T10:07:27.127Z,8.45
2019-02-27T10:10:32.493Z,8.80
2019-02-27T10:13:37.969Z,8.77
2019-02-27T10:16:43.582Z,9.17
2019-02-27T10:19:48.689Z,8.83
2019-02-27T10:22:54.062Z,7.65
2019-02-27T10:25:59.355Z,9.28
2019-02-27T10:29:04.366Z,9.38
2019-02-27T10:32:09.442Z,10.38
2019-02-27T10:35:15.261Z,9.30
2019-02-27T10:38:20.545Z,9.85
2019-02-27T10:41:25.558Z,9.18
2019-02-27T10:44:33.595Z,9.05
2019-02-27T10:47:39.919Z,9.58
2019-02-27T10:50:45.317Z,10.55
2019-02-27T10:53:50.441Z,9.55
2019-02-27T10:56:56.305Z,9.70
2019-02-27T11:00:01.894Z,10.10
2019-02-27T11:03:06.838Z,10.40
2019-02-27T11:06:11.951Z,9.35
2019-02-27T11:09:24.804Z,9.75
2019-02-27T11:12:30.095Z,9.65
2019-02-27T11:15:35.208Z,10.13
2019-02-27T11:18:40.370Z,9.43
2019-02-27T11:21:45.669Z,10.05
2019-02-27T11:24:52.426Z,9.15
2019-02-27T11:28:04.995Z,8.98
2019-02-27T11:31:04.418Z,9.63
2019-02-27T11:34:09.439Z,9.80
2019-02-27T11:37:16.430Z,9.43
2019-02-27T11:40:22.080Z,8.65
2019-02-27T11:43:27.955Z,10.14
2019-02-27T11:46:35.156Z,9.23
2019-02-27T11:49:40.103Z,9.13
2019-02-27T11:52:48.807Z,11.10
2019-02-27T11:55:52.560Z,10.50
2019-02-27T11:58:57.336Z,10.20
2019-02-27T12:02:02.344Z,9.45
2019-02-27T12:05:07.918Z,9.28
2019-02-27T12:08:16.399Z,9.43
2019-02-27T12:11:21.658Z,9.38
2019-02-27T12:14:26.612Z,9.48
2019-02-27T12:17:31.794Z,10.13
2019-02-27T12:20:37.058Z,8.93
2019-02-27T12:23:44.199Z,9.98
2019-02-27T12:26:48.493Z,8.85
2019-02-27T12:29:53.489Z,9.45
2019-02-27T12:32:58.701Z,9.10
2019-02-27T12:36:03.961Z,9.03
2019-02-27T12:39:08.874Z,9.68
2019-02-27T12:42:14.001Z,8.93
2019-02-27T12:45:20.355Z,8.70
2019-02-27T12:48:25.317Z,9.45
2019-02-27T12:51:39.531Z,8.50
2019-02-27T12:54:44.614Z,8.23
2019-02-27T12:57:52.342Z,7.65
2019-02-27T13:00:57.040Z,9.03
2019-02-27T13:04:02.036Z,8.65
2019-02-27T13:07:10.480Z,8.68
2019-02-27T13:10:16.276Z,7.95
2019-02-27T13:13:23.313Z,8.20
2019-02-27T13:16:28.560Z,8.94
2019-02-27T13:19:33.673Z,9.70
2019-02-27T13:22:38.521Z,10.10
2019-02-27T13:25:43.709Z,11.18
2019-02-27T13:28:49.654Z,9.78
2019-02-27T13:31:56.549Z,9.65
2019-02-27T13:35:01.811Z,9.83
2019-02-27T13:38:07.124Z,9.18
2019-02-27T13:41:12.657Z,10.65
2019-02-27T13:44:17.830Z,11.45
2019-02-27T13:47:25.028Z,10.28
2019-02-27T13:50:31.824Z,9.83
2019-02-27T13:53:36.726Z,9.45
2019-02-27T13:56:41.783Z,10.30
2019-02-27T13:59:47.137Z,9.93
2019-02-27T14:03:12.633Z,8.77
2019-02-27T14:06:17.523Z,9.30
2019-02-27T14:09:22.506Z,9.57
2019-02-27T14:12:29.993Z,8.70
2019-02-27T14:15:34.456Z,8.93
2019-02-27T14:18:39.529Z,9.83
2019-02-27T14:21:44.984Z,8.87
2019-02-27T14:24:51.839Z,8.07
2019-02-27T14:27:56.751Z,8.43
2019-02-27T14:31:01.703Z,8.70
2019-02-27T14:34:06.724Z,8.83
2019-02-27T14:37:16.249Z,7.97
2019-02-27T14:40:19.231Z,7.83
2019-02-27T14:43:44.445Z,7.60
2019-02-27T14:46:49.345Z,7.50
2019-02-27T14:49:54.388Z,10.30
2019-02-27T14:53:02.407Z,9.53
2019-02-27T14:56:10.076Z,13.13
2019-02-27T14:59:13.971Z,10.40
2019-02-27T15:02:22.060Z,8.60
2019-02-27T15:05:25.602Z,8.83
2019-02-27T15:08:30.614Z,7.37
2019-02-27T15:11:35.864Z,6.83
2019-02-27T15:14:40.774Z,6.97
2019-02-27T15:17:45.949Z,8.83
2019-02-27T15:20:50.822Z,7.30
2019-02-27T15:23:58.189Z,10.40
2019-02-27T15:27:11.730Z,8.20
2019-02-27T15:30:18.944Z,8.73
2019-02-27T15:33:23.910Z,7.70
2019-02-27T15:36:30.229Z,6.60
2019-02-27T15:39:35.308Z,7.10
2019-02-27T15:42:42.705Z,7.67
2019-02-27T15:45:48.106Z,7.40
2019-02-27T15:48:53.435Z,5.83
2019-02-27T15:51:58.430Z,20.83
2019-02-27T15:55:03.535Z,11.60
2019-02-27T15:58:08.675Z,5.97
2019-02-27T16:01:14.015Z,6.27
2019-02-27T16:04:21.253Z,5.53
2019-02-27T16:07:26.157Z,7.00
2019-02-27T16:10:31.208Z,5.53
2019-02-27T16:13:36.421Z,6.27
2019-02-27T16:16:41.570Z,6.53
2019-02-27T16:19:46.294Z,9.47
2019-02-27T16:22:51.199Z,6.93
2019-02-27T16:25:56.634Z,7.60
2019-02-27T16:29:01.790Z,6.37
2019-02-27T16:32:06.894Z,6.40
2019-02-27T16:35:12.075Z,7.27
2019-02-27T16:38:19.936Z,6.43
2019-02-27T16:41:28.968Z,6.40
2019-02-27T16:44:31.787Z,5.90
2019-02-27T16:47:37.042Z,6.67
2019-02-27T16:50:43.036Z,6.10
2019-02-27T16:53:52.401Z,8.10
2019-02-27T16:56:54.609Z,7.47
2019-02-27T16:59:59.575Z,7.37
2019-02-27T17:03:16.029Z,8.07
2019-02-27T17:06:21.061Z,7.90
2019-02-27T17:09:25.946Z,8.90
2019-02-27T17:12:38.268Z,8.20
2019-02-27T17:15:42.926Z,8.97
2019-02-27T17:18:47.912Z,7.97
2019-02-27T17:21:52.906Z,7.40
2019-02-27T17:24:57.927Z,7.30
2019-02-27T17:28:03.136Z,8.10
2019-02-27T17:31:11.983Z,6.63
2019-02-27T17:34:14.972Z,7.23
2019-02-27T17:37:20.208Z,7.63
2019-02-27T17:40:25.602Z,8.57
2019-02-27T17:43:30.734Z,8.37
2019-02-27T17:46:35.778Z,8.20
2019-02-27T17:49:40.780Z,8.17
2019-02-27T17:52:48.700Z,8.47
2019-02-27T17:55:52.681Z,8.53
2019-02-27T17:58:57.826Z,7.77
2019-02-27T18:02:02.680Z,8.80
2019-02-27T18:05:07.931Z,10.00
2019-02-27T18:08:15.816Z,9.07
2019-02-27T18:11:19.690Z,11.67
2019-02-27T18:14:25.046Z,9.90
2019-02-27T18:17:34.546Z,9.60
2019-02-27T18:20:36.981Z,10.47
2019-02-27T18:23:42.109Z,10.57
2019-02-27T18:26:50.091Z,11.10
2019-02-27T18:29:54.156Z,10.97
2019-02-27T18:33:01.272Z,12.20
2019-02-27T18:36:06.634Z,12.33
2019-02-27T18:39:11.955Z,12.73
2019-02-27T18:42:20.540Z,12.13
2019-02-27T18:45:24.842Z,14.00
2019-02-27T18:48:29.821Z,11.73
2019-02-27T18:51:34.797Z,11.57
2019-02-27T18:54:39.930Z,12.63
2019-02-27T18:57:47.285Z,10.30
2019-02-27T19:00:51.745Z,10.70
2019-02-27T19:04:00.313Z,12.40
2019-02-27T19:07:05.218Z,10.27
2019-02-27T19:10:10.596Z,11.47
2019-02-27T19:13:15.692Z,10.70
2019-02-27T19:16:21.505Z,12.60
2019-02-27T19:19:26.895Z,11.40
2019-02-27T19:22:32.335Z,11.70
2019-02-27T19:25:37.272Z,13.80
2019-02-27T19:28:42.902Z,12.90
2019-02-27T19:31:48.379Z,12.30
2019-02-27T19:34:54.616Z,12.53
2019-02-27T19:37:59.726Z,10.23
2019-02-27T19:41:04.876Z,12.00
2019-02-27T19:44:10.053Z,11.20
2019-02-27T19:47:18.396Z,11.63
2019-02-27T19:50:22.341Z,11.10
2019-02-27T19:53:27.381Z,11.47
2019-02-27T19:56:35.535Z,12.20
2019-02-27T19:59:39.332Z,12.07
2019-02-27T20:02:44.449Z,11.87
2019-02-27T20:05:50.580Z,12.23
2019-02-27T20:08:56.325Z,12.30
2019-02-27T20:12:01.398Z,12.20
2019-02-27T20:15:08.379Z,12.90
2019-02-27T20:18:13.835Z,12.13
2019-02-27T20:21:19.006Z,11.80
2019-02-27T20:24:24.050Z,11.03
2019-02-27T20:27:29.241Z,12.40
2019-02-27T20:30:34.536Z,10.73
2019-02-27T20:33:39.576Z,9.93
2019-02-27T20:36:45.252Z,9.80
2019-02-27T20:39:50.294Z,10.63
2019-02-27T20:42:55.508Z,10.63
2019-02-27T20:46:00.836Z,10.83
2019-02-27T20:49:06.262Z,10.50
2019-02-27T20:52:14.931Z,10.60
2019-02-27T20:55:18.116Z,10.50
2019-02-27T20:58:23.342Z,10.70
2019-02-27T21:01:28.467Z,10.47
2019-02-27T21:04:35.286Z,10.97
2019-02-27T21:07:45.812Z,11.87
